sensor_id;sensor_type;location;lat;lon;timestamp;P1;durP1;ratioP1;P2;durP2;ratioP2
20623;SDS011;10471;42.736;23.346;2022-09-14T00:00:43;14.00;;;11.47;;
20623;SDS011;10471;42.736;23.346;2022-09-14T00:03:09;11.83;;;10.30;;
20623;SDS011;10471;42.736;23.346;2022-09-14T00:05:34;13.53;;;11.13;;
20623;SDS011;10471;42.736;23.346;2022-09-14T00:08:00;15.17;;;11.27;;
20623;SDS011;10471;42.736;23.346;2022-09-14T00:10:26;15.07;;;12.17;;
20623;SDS011;10471;42.736;23.346;2022-09-14T00:12:51;16.90;;;12.27;;
20623;SDS011;10471;42.736;23.346;2022-09-14T00:15:17;17.47;;;12.87;;
20623;SDS011;10471;42.736;23.346;2022-09-14T00:17:42;15.27;;;12.73;;
20623;SDS011;10471;42.736;23.346;2022-09-14T00:20:08;17.00;;;12.53;;
20623;SDS011;10471;42.736;23.346;2022-09-14T00:22:34;15.63;;;13.10;;
20623;SDS011;10471;42.736;23.346;2022-09-14T00:24:59;19.97;;;12.97;;
20623;SDS011;10471;42.736;23.346;2022-09-14T00:27:24;15.13;;;13.00;;
20623;SDS011;10471;42.736;23.346;2022-09-14T00:29:50;16.37;;;12.83;;
20623;SDS011;10471;42.736;23.346;2022-09-14T00:32:15;14.67;;;11.60;;
20623;SDS011;10471;42.736;23.346;2022-09-14T00:34:40;12.97;;;11.67;;
20623;SDS011;10471;42.736;23.346;2022-09-14T00:37:06;14.50;;;11.80;;
20623;SDS011;10471;42.736;23.346;2022-09-14T00:39:31;15.97;;;11.57;;
20623;SDS011;10471;42.736;23.346;2022-09-14T00:41:56;14.70;;;13.07;;
20623;SDS011;10471;42.736;23.346;2022-09-14T00:46:48;13.87;;;12.23;;
20623;SDS011;10471;42.736;23.346;2022-09-14T00:51:49;16.07;;;13.00;;
20623;SDS011;10471;42.736;23.346;2022-09-14T00:54:15;15.87;;;13.67;;
20623;SDS011;10471;42.736;23.346;2022-09-14T00:56:40;17.20;;;12.83;;
20623;SDS011;10471;42.736;23.346;2022-09-14T00:59:09;14.23;;;12.73;;
20623;SDS011;10471;42.736;23.346;2022-09-14T01:01:40;18.43;;;12.13;;
20623;SDS011;10471;42.736;23.346;2022-09-14T01:04:05;19.10;;;13.30;;
20623;SDS011;10471;42.736;23.346;2022-09-14T01:12:08;16.63;;;14.50;;
20623;SDS011;10471;42.736;23.346;2022-09-14T01:15:09;17.70;;;14.13;;
20623;SDS011;10471;42.736;23.346;2022-09-14T01:21:22;15.93;;;14.23;;
20623;SDS011;10471;42.736;23.346;2022-09-14T01:29:47;15.73;;;13.33;;
20623;SDS011;10471;42.736;23.346;2022-09-14T01:32:20;15.90;;;13.53;;
20623;SDS011;10471;42.736;23.346;2022-09-14T01:35:25;15.83;;;13.83;;
20623;SDS011;10471;42.736;23.346;2022-09-14T01:38:00;18.10;;;13.67;;
20623;SDS011;10471;42.736;23.346;2022-09-14T01:43:00;17.97;;;15.10;;
20623;SDS011;10471;42.736;23.346;2022-09-14T01:45:31;17.63;;;14.73;;
20623;SDS011;10471;42.736;23.346;2022-09-14T01:48:03;16.87;;;13.87;;
20623;SDS011;10471;42.736;23.346;2022-09-14T01:50:34;17.73;;;15.10;;
20623;SDS011;10471;42.736;23.346;2022-09-14T01:53:05;16.37;;;14.47;;
20623;SDS011;10471;42.736;23.346;2022-09-14T01:55:55;18.50;;;14.67;;
20623;SDS011;10471;42.736;23.346;2022-09-14T01:58:32;17.57;;;15.33;;
20623;SDS011;10471;42.736;23.346;2022-09-14T02:01:02;17.43;;;15.50;;
20623;SDS011;10471;42.736;23.346;2022-09-14T02:03:30;17.27;;;15.30;;
20623;SDS011;10471;42.736;23.346;2022-09-14T02:06:05;19.87;;;15.27;;
20623;SDS011;10471;42.736;23.346;2022-09-14T02:08:35;19.93;;;15.53;;
20623;SDS011;10471;42.736;23.346;2022-09-14T02:11:01;17.30;;;15.20;;
20623;SDS011;10471;42.736;23.346;2022-09-14T02:13:27;20.07;;;14.83;;
20623;SDS011;10471;42.736;23.346;2022-09-14T02:15:53;16.70;;;14.80;;
20623;SDS011;10471;42.736;23.346;2022-09-14T02:18:18;20.20;;;14.97;;
20623;SDS011;10471;42.736;23.346;2022-09-14T02:20:46;19.80;;;15.03;;
20623;SDS011;10471;42.736;23.346;2022-09-14T02:23:16;18.57;;;15.30;;
20623;SDS011;10471;42.736;23.346;2022-09-14T02:25:41;17.63;;;15.47;;
20623;SDS011;10471;42.736;23.346;2022-09-14T02:28:07;21.87;;;15.47;;
20623;SDS011;10471;42.736;23.346;2022-09-14T02:30:36;17.23;;;15.07;;
20623;SDS011;10471;42.736;23.346;2022-09-14T02:33:23;18.90;;;16.40;;
20623;SDS011;10471;42.736;23.346;2022-09-14T02:35:58;19.10;;;15.40;;
20623;SDS011;10471;42.736;23.346;2022-09-14T02:46:52;18.17;;;15.53;;
20623;SDS011;10471;42.736;23.346;2022-09-14T02:49:46;18.77;;;15.90;;
20623;SDS011;10471;42.736;23.346;2022-09-14T02:52:32;20.40;;;16.23;;
20623;SDS011;10471;42.736;23.346;2022-09-14T02:55:06;19.07;;;16.93;;
20623;SDS011;10471;42.736;23.346;2022-09-14T03:00:25;18.97;;;15.80;;
20623;SDS011;10471;42.736;23.346;2022-09-14T03:02:51;19.80;;;15.50;;
20623;SDS011;10471;42.736;23.346;2022-09-14T03:05:16;18.67;;;16.00;;
20623;SDS011;10471;42.736;23.346;2022-09-14T03:07:42;20.40;;;16.77;;
20623;SDS011;10471;42.736;23.346;2022-09-14T03:10:07;22.20;;;17.17;;
20623;SDS011;10471;42.736;23.346;2022-09-14T03:12:33;19.97;;;16.90;;
20623;SDS011;10471;42.736;23.346;2022-09-14T03:14:58;19.90;;;16.40;;
20623;SDS011;10471;42.736;23.346;2022-09-14T03:17:23;21.63;;;15.83;;
20623;SDS011;10471;42.736;23.346;2022-09-14T03:19:49;17.20;;;15.40;;
20623;SDS011;10471;42.736;23.346;2022-09-14T03:22:14;21.77;;;17.37;;
20623;SDS011;10471;42.736;23.346;2022-09-14T03:24:40;18.57;;;16.40;;
20623;SDS011;10471;42.736;23.346;2022-09-14T03:27:05;25.13;;;17.30;;
20623;SDS011;10471;42.736;23.346;2022-09-14T03:29:30;19.90;;;15.87;;
20623;SDS011;10471;42.736;23.346;2022-09-14T03:31:56;21.73;;;16.67;;
20623;SDS011;10471;42.736;23.346;2022-09-14T03:34:21;18.73;;;15.53;;
20623;SDS011;10471;42.736;23.346;2022-09-14T03:36:47;21.77;;;15.60;;
20623;SDS011;10471;42.736;23.346;2022-09-14T03:39:12;24.50;;;17.07;;
20623;SDS011;10471;42.736;23.346;2022-09-14T03:41:38;25.13;;;18.83;;
20623;SDS011;10471;42.736;23.346;2022-09-14T03:44:03;24.83;;;19.43;;
20623;SDS011;10471;42.736;23.346;2022-09-14T03:46:29;28.37;;;19.67;;
20623;SDS011;10471;42.736;23.346;2022-09-14T03:48:54;24.67;;;19.20;;
20623;SDS011;10471;42.736;23.346;2022-09-14T03:51:20;31.03;;;19.53;;
20623;SDS011;10471;42.736;23.346;2022-09-14T03:53:45;21.43;;;16.83;;
20623;SDS011;10471;42.736;23.346;2022-09-14T03:56:12;24.60;;;17.17;;
20623;SDS011;10471;42.736;23.346;2022-09-14T03:58:41;23.47;;;15.93;;
20623;SDS011;10471;42.736;23.346;2022-09-14T04:01:08;23.00;;;16.50;;
20623;SDS011;10471;42.736;23.346;2022-09-14T04:03:36;17.57;;;14.93;;
20623;SDS011;10471;42.736;23.346;2022-09-14T04:06:02;33.30;;;16.87;;
20623;SDS011;10471;42.736;23.346;2022-09-14T04:08:34;31.70;;;16.77;;
20623;SDS011;10471;42.736;23.346;2022-09-14T04:11:05;22.00;;;15.63;;
20623;SDS011;10471;42.736;23.346;2022-09-14T04:13:35;30.73;;;15.80;;
20623;SDS011;10471;42.736;23.346;2022-09-14T04:16:00;26.87;;;16.23;;
20623;SDS011;10471;42.736;23.346;2022-09-14T04:18:26;29.63;;;17.40;;
20623;SDS011;10471;42.736;23.346;2022-09-14T04:20:56;21.80;;;15.80;;
20623;SDS011;10471;42.736;23.346;2022-09-14T04:23:23;30.70;;;16.37;;
20623;SDS011;10471;42.736;23.346;2022-09-14T04:25:49;25.40;;;17.93;;
20623;SDS011;10471;42.736;23.346;2022-09-14T04:28:15;30.87;;;17.37;;
20623;SDS011;10471;42.736;23.346;2022-09-14T04:30:40;29.27;;;17.33;;
20623;SDS011;10471;42.736;23.346;2022-09-14T04:33:06;26.70;;;18.20;;
20623;SDS011;10471;42.736;23.346;2022-09-14T04:35:32;27.03;;;17.60;;
20623;SDS011;10471;42.736;23.346;2022-09-14T04:37:57;28.20;;;17.47;;
20623;SDS011;10471;42.736;23.346;2022-09-14T04:40:23;29.00;;;17.33;;
20623;SDS011;10471;42.736;23.346;2022-09-14T04:42:48;36.50;;;17.70;;
20623;SDS011;10471;42.736;23.346;2022-09-14T04:45:13;28.10;;;17.20;;
20623;SDS011;10471;42.736;23.346;2022-09-14T04:47:39;31.47;;;16.80;;
20623;SDS011;10471;42.736;23.346;2022-09-14T04:50:04;25.90;;;16.73;;
20623;SDS011;10471;42.736;23.346;2022-09-14T04:52:30;23.43;;;15.90;;
20623;SDS011;10471;42.736;23.346;2022-09-14T04:54:55;19.70;;;15.97;;
20623;SDS011;10471;42.736;23.346;2022-09-14T04:57:21;27.10;;;15.73;;
20623;SDS011;10471;42.736;23.346;2022-09-14T04:59:46;25.10;;;15.33;;
20623;SDS011;10471;42.736;23.346;2022-09-14T05:02:12;20.90;;;15.23;;
20623;SDS011;10471;42.736;23.346;2022-09-14T05:04:37;17.87;;;14.57;;
20623;SDS011;10471;42.736;23.346;2022-09-14T05:07:02;18.30;;;14.40;;
20623;SDS011;10471;42.736;23.346;2022-09-14T05:09:28;18.07;;;13.93;;
20623;SDS011;10471;42.736;23.346;2022-09-14T05:11:53;20.30;;;13.80;;
20623;SDS011;10471;42.736;23.346;2022-09-14T05:14:19;17.77;;;13.00;;
20623;SDS011;10471;42.736;23.346;2022-09-14T05:16:44;15.90;;;13.17;;
20623;SDS011;10471;42.736;23.346;2022-09-14T05:19:12;15.90;;;12.97;;
20623;SDS011;10471;42.736;23.346;2022-09-14T05:21:39;17.30;;;13.43;;
20623;SDS011;10471;42.736;23.346;2022-09-14T05:24:14;14.93;;;12.87;;
20623;SDS011;10471;42.736;23.346;2022-09-14T05:26:42;18.57;;;12.83;;
20623;SDS011;10471;42.736;23.346;2022-09-14T05:29:12;14.23;;;12.83;;
20623;SDS011;10471;42.736;23.346;2022-09-14T05:31:40;14.23;;;12.70;;
20623;SDS011;10471;42.736;23.346;2022-09-14T05:34:07;15.17;;;13.53;;
20623;SDS011;10471;42.736;23.346;2022-09-14T05:36:34;20.83;;;13.33;;
20623;SDS011;10471;42.736;23.346;2022-09-14T05:39:01;15.57;;;12.83;;
20623;SDS011;10471;42.736;23.346;2022-09-14T05:41:26;20.33;;;14.07;;
20623;SDS011;10471;42.736;23.346;2022-09-14T05:43:52;15.10;;;13.50;;
20623;SDS011;10471;42.736;23.346;2022-09-14T05:46:17;19.13;;;13.23;;
20623;SDS011;10471;42.736;23.346;2022-09-14T05:48:46;17.10;;;12.80;;
20623;SDS011;10471;42.736;23.346;2022-09-14T05:51:16;14.23;;;12.47;;
20623;SDS011;10471;42.736;23.346;2022-09-14T05:53:47;13.87;;;12.20;;
20623;SDS011;10471;42.736;23.346;2022-09-14T05:56:14;14.97;;;12.00;;
20623;SDS011;10471;42.736;23.346;2022-09-14T05:58:40;14.43;;;12.90;;
20623;SDS011;10471;42.736;23.346;2022-09-14T06:03:38;16.30;;;12.87;;
20623;SDS011;10471;42.736;23.346;2022-09-14T06:06:06;16.80;;;14.33;;
20623;SDS011;10471;42.736;23.346;2022-09-14T06:08:33;16.97;;;14.90;;
20623;SDS011;10471;42.736;23.346;2022-09-14T06:11:18;19.27;;;17.17;;
20623;SDS011;10471;42.736;23.346;2022-09-14T06:13:45;25.40;;;22.10;;
20623;SDS011;10471;42.736;23.346;2022-09-14T06:16:13;27.00;;;23.07;;
20623;SDS011;10471;42.736;23.346;2022-09-14T06:18:40;26.67;;;22.27;;
20623;SDS011;10471;42.736;23.346;2022-09-14T06:21:07;25.43;;;21.30;;
20623;SDS011;10471;42.736;23.346;2022-09-14T06:23:33;24.30;;;20.33;;
20623;SDS011;10471;42.736;23.346;2022-09-14T06:26:00;24.97;;;19.70;;
20623;SDS011;10471;42.736;23.346;2022-09-14T06:28:28;23.93;;;19.07;;
20623;SDS011;10471;42.736;23.346;2022-09-14T06:30:54;22.83;;;17.67;;
20623;SDS011;10471;42.736;23.346;2022-09-14T06:33:20;22.13;;;16.83;;
20623;SDS011;10471;42.736;23.346;2022-09-14T06:35:59;20.23;;;15.70;;
20623;SDS011;10471;42.736;23.346;2022-09-14T06:38:26;18.20;;;15.17;;
20623;SDS011;10471;42.736;23.346;2022-09-14T06:40:53;17.63;;;14.70;;
20623;SDS011;10471;42.736;23.346;2022-09-14T06:43:21;20.73;;;13.90;;
20623;SDS011;10471;42.736;23.346;2022-09-14T06:48:23;14.87;;;12.27;;
20623;SDS011;10471;42.736;23.346;2022-09-14T06:50:49;14.47;;;10.47;;
20623;SDS011;10471;42.736;23.346;2022-09-14T06:53:14;14.17;;;11.43;;
20623;SDS011;10471;42.736;23.346;2022-09-14T06:55:39;12.83;;;11.53;;
20623;SDS011;10471;42.736;23.346;2022-09-14T06:58:05;16.70;;;11.43;;
20623;SDS011;10471;42.736;23.346;2022-09-14T07:00:31;15.37;;;10.73;;
20623;SDS011;10471;42.736;23.346;2022-09-14T07:02:57;11.07;;;9.97;;
20623;SDS011;10471;42.736;23.346;2022-09-14T07:05:22;11.23;;;9.97;;
20623;SDS011;10471;42.736;23.346;2022-09-14T07:07:50;11.03;;;9.67;;
20623;SDS011;10471;42.736;23.346;2022-09-14T07:10:19;11.93;;;9.67;;
20623;SDS011;10471;42.736;23.346;2022-09-14T07:12:44;13.67;;;8.63;;
20623;SDS011;10471;42.736;23.346;2022-09-14T07:15:10;10.57;;;9.47;;
20623;SDS011;10471;42.736;23.346;2022-09-14T07:17:35;11.83;;;8.83;;
20623;SDS011;10471;42.736;23.346;2022-09-14T07:20:03;10.70;;;9.03;;
20623;SDS011;10471;42.736;23.346;2022-09-14T07:22:34;10.43;;;8.60;;
20623;SDS011;10471;42.736;23.346;2022-09-14T07:24:59;10.90;;;8.80;;
20623;SDS011;10471;42.736;23.346;2022-09-14T07:27:25;10.90;;;8.53;;
20623;SDS011;10471;42.736;23.346;2022-09-14T07:29:51;11.50;;;8.60;;
20623;SDS011;10471;42.736;23.346;2022-09-14T07:32:16;8.93;;;7.97;;
20623;SDS011;10471;42.736;23.346;2022-09-14T07:34:41;9.33;;;8.43;;
20623;SDS011;10471;42.736;23.346;2022-09-14T07:37:07;10.23;;;7.80;;
20623;SDS011;10471;42.736;23.346;2022-09-14T07:39:33;11.23;;;8.33;;
20623;SDS011;10471;42.736;23.346;2022-09-14T07:41:58;8.33;;;6.90;;
20623;SDS011;10471;42.736;23.346;2022-09-14T07:44:24;10.03;;;7.60;;
20623;SDS011;10471;42.736;23.346;2022-09-14T07:46:49;10.00;;;7.77;;
20623;SDS011;10471;42.736;23.346;2022-09-14T07:49:15;10.80;;;8.63;;
20623;SDS011;10471;42.736;23.346;2022-09-14T07:51:41;11.20;;;7.40;;
20623;SDS011;10471;42.736;23.346;2022-09-14T07:54:08;12.10;;;7.50;;
20623;SDS011;10471;42.736;23.346;2022-09-14T07:56:36;14.40;;;7.87;;
20623;SDS011;10471;42.736;23.346;2022-09-14T07:59:02;14.20;;;8.20;;
20623;SDS011;10471;42.736;23.346;2022-09-14T08:01:29;9.43;;;8.40;;
20623;SDS011;10471;42.736;23.346;2022-09-14T08:03:55;11.10;;;8.60;;
20623;SDS011;10471;42.736;23.346;2022-09-14T08:06:25;11.63;;;7.33;;
20623;SDS011;10471;42.736;23.346;2022-09-14T08:08:51;11.33;;;7.73;;
20623;SDS011;10471;42.736;23.346;2022-09-14T08:13:45;8.13;;;7.27;;
20623;SDS011;10471;42.736;23.346;2022-09-14T08:16:14;10.67;;;7.27;;
20623;SDS011;10471;42.736;23.346;2022-09-14T08:18:40;11.33;;;7.57;;
20623;SDS011;10471;42.736;23.346;2022-09-14T08:21:07;9.53;;;8.53;;
20623;SDS011;10471;42.736;23.346;2022-09-14T08:23:35;12.70;;;8.13;;
20623;SDS011;10471;42.736;23.346;2022-09-14T08:26:05;11.17;;;7.90;;
20623;SDS011;10471;42.736;23.346;2022-09-14T08:28:33;10.03;;;7.93;;
20623;SDS011;10471;42.736;23.346;2022-09-14T08:31:01;13.93;;;8.23;;
20623;SDS011;10471;42.736;23.346;2022-09-14T08:33:27;11.13;;;7.90;;
20623;SDS011;10471;42.736;23.346;2022-09-14T08:35:53;11.60;;;8.30;;
20623;SDS011;10471;42.736;23.346;2022-09-14T08:38:18;11.10;;;7.70;;
20623;SDS011;10471;42.736;23.346;2022-09-14T08:40:44;11.47;;;8.00;;
20623;SDS011;10471;42.736;23.346;2022-09-14T08:43:11;12.90;;;7.37;;
20623;SDS011;10471;42.736;23.346;2022-09-14T08:45:41;17.00;;;7.73;;
20623;SDS011;10471;42.736;23.346;2022-09-14T08:48:19;17.77;;;8.23;;
20623;SDS011;10471;42.736;23.346;2022-09-14T08:50:49;9.23;;;7.40;;
20623;SDS011;10471;42.736;23.346;2022-09-14T08:53:18;8.77;;;7.00;;
20623;SDS011;10471;42.736;23.346;2022-09-14T08:56:28;11.60;;;7.03;;
20623;SDS011;10471;42.736;23.346;2022-09-14T09:01:39;12.63;;;7.03;;
20623;SDS011;10471;42.736;23.346;2022-09-14T09:12:16;12.60;;;6.23;;
20623;SDS011;10471;42.736;23.346;2022-09-14T09:14:46;9.10;;;5.97;;
20623;SDS011;10471;42.736;23.346;2022-09-14T09:20:28;10.13;;;6.23;;
20623;SDS011;10471;42.736;23.346;2022-09-14T09:28:15;7.67;;;5.73;;
20623;SDS011;10471;42.736;23.346;2022-09-14T09:30:42;10.17;;;5.67;;
20623;SDS011;10471;42.736;23.346;2022-09-14T09:33:22;9.97;;;5.83;;
20623;SDS011;10471;42.736;23.346;2022-09-14T09:35:50;9.60;;;4.70;;
20623;SDS011;10471;42.736;23.346;2022-09-14T09:38:18;9.33;;;4.60;;
20623;SDS011;10471;42.736;23.346;2022-09-14T09:40:53;6.80;;;4.80;;
20623;SDS011;10471;42.736;23.346;2022-09-14T09:43:55;8.60;;;4.70;;
20623;SDS011;10471;42.736;23.346;2022-09-14T09:46:22;10.80;;;4.93;;
20623;SDS011;10471;42.736;23.346;2022-09-14T09:48:48;9.40;;;4.53;;
20623;SDS011;10471;42.736;23.346;2022-09-14T09:51:24;8.47;;;4.93;;
20623;SDS011;10471;42.736;23.346;2022-09-14T09:53:53;9.43;;;4.67;;
20623;SDS011;10471;42.736;23.346;2022-09-14T10:01:50;9.73;;;4.43;;
20623;SDS011;10471;42.736;23.346;2022-09-14T10:04:19;8.87;;;4.20;;
20623;SDS011;10471;42.736;23.346;2022-09-14T10:06:49;9.90;;;4.53;;
20623;SDS011;10471;42.736;23.346;2022-09-14T10:09:22;8.07;;;4.07;;
20623;SDS011;10471;42.736;23.346;2022-09-14T10:11:58;9.23;;;4.07;;
20623;SDS011;10471;42.736;23.346;2022-09-14T10:14:27;10.37;;;4.87;;
20623;SDS011;10471;42.736;23.346;2022-09-14T10:17:30;7.83;;;4.50;;
20623;SDS011;10471;42.736;23.346;2022-09-14T10:19:49;8.37;;;4.17;;
20623;SDS011;10471;42.736;23.346;2022-09-14T10:30:23;7.63;;;3.50;;
20623;SDS011;10471;42.736;23.346;2022-09-14T10:32:58;12.80;;;4.17;;
20623;SDS011;10471;42.736;23.346;2022-09-14T10:35:53;12.83;;;4.20;;
20623;SDS011;10471;42.736;23.346;2022-09-14T10:38:48;8.00;;;4.07;;
20623;SDS011;10471;42.736;23.346;2022-09-14T10:46:29;5.33;;;3.40;;
20623;SDS011;10471;42.736;23.346;2022-09-14T10:49:12;6.10;;;3.13;;
20623;SDS011;10471;42.736;23.346;2022-09-14T10:57:19;5.17;;;3.50;;
20623;SDS011;10471;42.736;23.346;2022-09-14T11:02:48;2.57;;;1.70;;
20623;SDS011;10471;42.736;23.346;2022-09-14T11:05:28;4.07;;;1.70;;
20623;SDS011;10471;42.736;23.346;2022-09-14T11:18:56;4.90;;;1.90;;
20623;SDS011;10471;42.736;23.346;2022-09-14T11:24:20;2.67;;;1.90;;
20623;SDS011;10471;42.736;23.346;2022-09-14T11:29:21;2.27;;;1.50;;
20623;SDS011;10471;42.736;23.346;2022-09-14T11:31:52;3.00;;;2.10;;
20623;SDS011;10471;42.736;23.346;2022-09-14T11:34:26;2.13;;;1.60;;
20623;SDS011;10471;42.736;23.346;2022-09-14T11:37:16;2.93;;;1.60;;
20623;SDS011;10471;42.736;23.346;2022-09-14T11:39:48;2.70;;;1.73;;
20623;SDS011;10471;42.736;23.346;2022-09-14T11:45:42;1.80;;;1.50;;
20623;SDS011;10471;42.736;23.346;2022-09-14T11:50:54;1.60;;;1.50;;
20623;SDS011;10471;42.736;23.346;2022-09-14T11:53:27;5.43;;;1.53;;
20623;SDS011;10471;42.736;23.346;2022-09-14T11:55:54;3.63;;;1.90;;
20623;SDS011;10471;42.736;23.346;2022-09-14T11:58:21;1.93;;;1.73;;
20623;SDS011;10471;42.736;23.346;2022-09-14T12:03:15;3.73;;;1.63;;
20623;SDS011;10471;42.736;23.346;2022-09-14T12:05:43;2.60;;;1.60;;
20623;SDS011;10471;42.736;23.346;2022-09-14T12:13:27;2.47;;;1.60;;
20623;SDS011;10471;42.736;23.346;2022-09-14T12:16:03;2.53;;;1.70;;
20623;SDS011;10471;42.736;23.346;2022-09-14T12:18:31;2.00;;;1.57;;
20623;SDS011;10471;42.736;23.346;2022-09-14T12:21:01;2.87;;;1.67;;
20623;SDS011;10471;42.736;23.346;2022-09-14T12:23:40;1.60;;;1.50;;
20623;SDS011;10471;42.736;23.346;2022-09-14T12:35:58;5.90;;;1.80;;
20623;SDS011;10471;42.736;23.346;2022-09-14T12:59:02;5.90;;;2.30;;
20623;SDS011;10471;42.736;23.346;2022-09-14T13:01:34;2.67;;;1.80;;
20623;SDS011;10471;42.736;23.346;2022-09-14T13:04:00;2.47;;;1.57;;
20623;SDS011;10471;42.736;23.346;2022-09-14T13:06:39;6.87;;;2.10;;
20623;SDS011;10471;42.736;23.346;2022-09-14T13:09:11;2.57;;;2.03;;
20623;SDS011;10471;42.736;23.346;2022-09-14T13:11:42;2.70;;;1.53;;
20623;SDS011;10471;42.736;23.346;2022-09-14T13:14:17;3.17;;;1.83;;
20623;SDS011;10471;42.736;23.346;2022-09-14T13:16:43;4.20;;;1.73;;
20623;SDS011;10471;42.736;23.346;2022-09-14T13:19:32;3.97;;;1.40;;
20623;SDS011;10471;42.736;23.346;2022-09-14T13:21:58;3.50;;;1.70;;
20623;SDS011;10471;42.736;23.346;2022-09-14T13:24:30;1.87;;;1.73;;
20623;SDS011;10471;42.736;23.346;2022-09-14T13:27:26;1.60;;;1.50;;
20623;SDS011;10471;42.736;23.346;2022-09-14T13:30:19;3.37;;;1.80;;
20623;SDS011;10471;42.736;23.346;2022-09-14T13:32:49;3.73;;;1.50;;
20623;SDS011;10471;42.736;23.346;2022-09-14T13:35:28;2.17;;;1.57;;
20623;SDS011;10471;42.736;23.346;2022-09-14T13:37:57;3.90;;;1.87;;
20623;SDS011;10471;42.736;23.346;2022-09-14T13:40:25;8.35;;;1.95;;
20623;SDS011;10471;42.736;23.346;2022-09-14T13:42:53;3.33;;;2.10;;
20623;SDS011;10471;42.736;23.346;2022-09-14T13:45:20;1.93;;;1.70;;
20623;SDS011;10471;42.736;23.346;2022-09-14T13:47:46;5.90;;;1.80;;
20623;SDS011;10471;42.736;23.346;2022-09-14T13:50:12;1.80;;;1.47;;
20623;SDS011;10471;42.736;23.346;2022-09-14T13:52:39;2.28;;;1.50;;
20623;SDS011;10471;42.736;23.346;2022-09-14T13:57:31;2.73;;;1.70;;
20623;SDS011;10471;42.736;23.346;2022-09-14T14:00:16;3.40;;;1.80;;
20623;SDS011;10471;42.736;23.346;2022-09-14T14:02:45;3.03;;;1.67;;
20623;SDS011;10471;42.736;23.346;2022-09-14T14:05:20;1.70;;;1.60;;
20623;SDS011;10471;42.736;23.346;2022-09-14T14:07:48;2.53;;;1.40;;
20623;SDS011;10471;42.736;23.346;2022-09-14T14:10:28;3.13;;;1.57;;
20623;SDS011;10471;42.736;23.346;2022-09-14T14:12:57;2.53;;;1.70;;
20623;SDS011;10471;42.736;23.346;2022-09-14T14:17:49;3.10;;;1.80;;
20623;SDS011;10471;42.736;23.346;2022-09-14T14:20:26;4.43;;;1.70;;
20623;SDS011;10471;42.736;23.346;2022-09-14T14:23:20;3.58;;;1.60;;
20623;SDS011;10471;42.736;23.346;2022-09-14T14:25:50;1.77;;;1.67;;
20623;SDS011;10471;42.736;23.346;2022-09-14T14:28:28;2.40;;;1.40;;
20623;SDS011;10471;42.736;23.346;2022-09-14T14:30:55;1.70;;;1.23;;
20623;SDS011;10471;42.736;23.346;2022-09-14T14:33:21;1.50;;;1.40;;
20623;SDS011;10471;42.736;23.346;2022-09-14T14:35:48;1.45;;;1.35;;
20623;SDS011;10471;42.736;23.346;2022-09-14T14:38:18;2.23;;;1.43;;
20623;SDS011;10471;42.736;23.346;2022-09-14T14:40:44;3.20;;;1.45;;
20623;SDS011;10471;42.736;23.346;2022-09-14T14:43:14;2.92;;;1.40;;
20623;SDS011;10471;42.736;23.346;2022-09-14T14:45:46;2.37;;;1.30;;
20623;SDS011;10471;42.736;23.346;2022-09-14T14:48:12;4.33;;;1.37;;
20623;SDS011;10471;42.736;23.346;2022-09-14T14:50:38;4.20;;;1.80;;
20623;SDS011;10471;42.736;23.346;2022-09-14T14:53:03;2.35;;;1.40;;
20623;SDS011;10471;42.736;23.346;2022-09-14T14:55:29;2.87;;;1.30;;
20623;SDS011;10471;42.736;23.346;2022-09-14T14:57:59;2.80;;;1.40;;
20623;SDS011;10471;42.736;23.346;2022-09-14T15:00:27;3.53;;;1.50;;
20623;SDS011;10471;42.736;23.346;2022-09-14T15:02:54;2.80;;;1.90;;
20623;SDS011;10471;42.736;23.346;2022-09-14T15:05:20;5.70;;;1.90;;
20623;SDS011;10471;42.736;23.346;2022-09-14T15:07:46;4.68;;;1.58;;
20623;SDS011;10471;42.736;23.346;2022-09-14T15:10:15;4.20;;;1.48;;
20623;SDS011;10471;42.736;23.346;2022-09-14T15:12:41;3.13;;;1.57;;
20623;SDS011;10471;42.736;23.346;2022-09-14T15:15:10;2.20;;;1.30;;
20623;SDS011;10471;42.736;23.346;2022-09-14T15:17:40;3.17;;;1.90;;
20623;SDS011;10471;42.736;23.346;2022-09-14T15:20:06;4.17;;;1.50;;
20623;SDS011;10471;42.736;23.346;2022-09-14T15:22:33;2.43;;;1.50;;
20623;SDS011;10471;42.736;23.346;2022-09-14T15:25:00;3.80;;;2.10;;
20623;SDS011;10471;42.736;23.346;2022-09-14T15:27:26;4.60;;;1.70;;
20623;SDS011;10471;42.736;23.346;2022-09-14T15:29:51;3.87;;;1.80;;
20623;SDS011;10471;42.736;23.346;2022-09-14T15:32:16;4.93;;;2.57;;
20623;SDS011;10471;42.736;23.346;2022-09-14T15:34:42;2.63;;;2.07;;
20623;SDS011;10471;42.736;23.346;2022-09-14T15:37:08;3.23;;;1.87;;
20623;SDS011;10471;42.736;23.346;2022-09-14T15:39:34;3.87;;;1.80;;
20623;SDS011;10471;42.736;23.346;2022-09-14T15:41:59;4.50;;;2.77;;
20623;SDS011;10471;42.736;23.346;2022-09-14T15:44:25;4.33;;;2.43;;
20623;SDS011;10471;42.736;23.346;2022-09-14T15:46:50;2.87;;;2.30;;
20623;SDS011;10471;42.736;23.346;2022-09-14T15:49:18;3.80;;;1.97;;
20623;SDS011;10471;42.736;23.346;2022-09-14T15:51:46;5.60;;;1.90;;
20623;SDS011;10471;42.736;23.346;2022-09-14T15:54:14;2.47;;;1.90;;
20623;SDS011;10471;42.736;23.346;2022-09-14T15:56:41;3.43;;;1.93;;
20623;SDS011;10471;42.736;23.346;2022-09-14T15:59:07;4.57;;;2.10;;
20623;SDS011;10471;42.736;23.346;2022-09-14T16:01:33;3.27;;;1.90;;
20623;SDS011;10471;42.736;23.346;2022-09-14T16:04:00;4.37;;;2.30;;
20623;SDS011;10471;42.736;23.346;2022-09-14T16:06:28;4.83;;;2.27;;
20623;SDS011;10471;42.736;23.346;2022-09-14T16:08:54;3.10;;;2.17;;
20623;SDS011;10471;42.736;23.346;2022-09-14T16:11:21;4.83;;;2.40;;
20623;SDS011;10471;42.736;23.346;2022-09-14T16:13:48;4.47;;;2.30;;
20623;SDS011;10471;42.736;23.346;2022-09-14T16:16:15;6.20;;;2.00;;
20623;SDS011;10471;42.736;23.346;2022-09-14T16:18:42;4.87;;;2.07;;
20623;SDS011;10471;42.736;23.346;2022-09-14T16:21:13;5.33;;;2.53;;
20623;SDS011;10471;42.736;23.346;2022-09-14T16:23:48;6.33;;;3.10;;
20623;SDS011;10471;42.736;23.346;2022-09-14T16:26:20;13.23;;;3.70;;
20623;SDS011;10471;42.736;23.346;2022-09-14T16:28:47;10.07;;;3.60;;
20623;SDS011;10471;42.736;23.346;2022-09-14T16:31:15;6.10;;;3.10;;
20623;SDS011;10471;42.736;23.346;2022-09-14T16:33:47;7.70;;;3.13;;
20623;SDS011;10471;42.736;23.346;2022-09-14T16:36:16;7.60;;;2.90;;
20623;SDS011;10471;42.736;23.346;2022-09-14T16:38:46;8.77;;;2.63;;
20623;SDS011;10471;42.736;23.346;2022-09-14T16:41:12;9.27;;;2.90;;
20623;SDS011;10471;42.736;23.346;2022-09-14T16:43:38;9.57;;;3.40;;
20623;SDS011;10471;42.736;23.346;2022-09-14T16:46:11;11.57;;;3.30;;
20623;SDS011;10471;42.736;23.346;2022-09-14T16:48:41;10.33;;;4.10;;
20623;SDS011;10471;42.736;23.346;2022-09-14T16:51:08;8.53;;;3.43;;
20623;SDS011;10471;42.736;23.346;2022-09-14T16:53:36;12.20;;;3.80;;
20623;SDS011;10471;42.736;23.346;2022-09-14T16:56:03;10.63;;;3.67;;
20623;SDS011;10471;42.736;23.346;2022-09-14T16:58:31;8.20;;;3.50;;
20623;SDS011;10471;42.736;23.346;2022-09-14T17:01:07;7.50;;;3.47;;
20623;SDS011;10471;42.736;23.346;2022-09-14T17:03:36;9.93;;;3.77;;
20623;SDS011;10471;42.736;23.346;2022-09-14T17:06:03;8.20;;;2.97;;